createdAt,value
2022-12-23T00:01:27.329Z,100107.59
2022-12-23T00:04:00.425Z,100107.28
2022-12-23T00:06:28.649Z,100109.97
2022-12-23T00:08:58.865Z,100118.59
2022-12-23T00:11:28.644Z,100121.94
2022-12-23T00:14:20.528Z,100117.03
2022-12-23T00:16:51.358Z,100118.72
2022-12-23T00:19:21.033Z,100119.66
2022-12-23T00:21:49.581Z,100122.38
2022-12-23T00:24:20.272Z,100125.66
2022-12-23T00:26:48.397Z,100122.06
2022-12-23T00:29:16.490Z,100126.81
2022-12-23T00:31:44.749Z,100124.28
2022-12-23T00:34:13.365Z,100124.19
2022-12-23T00:36:43.054Z,100139.81
2022-12-23T00:39:31.130Z,100140.31
2022-12-23T00:42:16.715Z,100142.44
2022-12-23T00:44:45.023Z,100144.00
2022-12-23T00:47:33.153Z,100139.81
2022-12-23T00:50:00.314Z,100140.22
2022-12-23T00:52:29.985Z,100148.91
2022-12-23T00:54:58.086Z,100149.03
2022-12-23T00:57:26.293Z,100143.78
2022-12-23T00:59:54.341Z,100148.91
2022-12-23T01:02:39.938Z,100152.38
2022-12-23T01:08:18.653Z,100167.72
2022-12-23T01:10:46.709Z,100171.91
2022-12-23T01:13:14.819Z,100176.44
2022-12-23T01:15:43.082Z,100180.84
2022-12-23T01:18:11.200Z,100178.13
2022-12-23T01:20:39.278Z,100175.69
2022-12-23T01:23:07.484Z,100179.28
2022-12-23T01:25:36.983Z,100181.91
2022-12-23T01:28:05.519Z,100191.25
2022-12-23T01:30:33.677Z,100183.25
2022-12-23T01:33:04.897Z,100188.63
2022-12-23T01:35:33.007Z,100191.53
2022-12-23T01:38:01.244Z,100186.19
2022-12-23T01:40:29.288Z,100185.13
2022-12-23T01:42:57.733Z,100192.28
2022-12-23T01:45:30.454Z,100193.94
2022-12-23T01:48:02.150Z,100202.91
2022-12-23T01:50:34.089Z,100205.72
2022-12-23T01:53:07.971Z,100208.03
2022-12-23T01:55:39.949Z,100209.09
2022-12-23T01:58:14.647Z,100213.16
2022-12-23T02:01:01.317Z,100207.72
2022-12-23T02:03:45.383Z,100210.03
2022-12-23T02:06:38.159Z,100211.06
2022-12-23T02:09:19.455Z,100219.06
2022-12-23T02:12:04.146Z,100222.50
2022-12-23T02:15:04.285Z,100230.50
2022-12-23T02:17:41.893Z,100226.81
2022-12-23T02:20:37.428Z,100234.69
2022-12-23T02:23:31.002Z,100242.44
2022-12-23T02:26:16.400Z,100250.53
2022-12-23T02:29:04.312Z,100253.16
2022-12-23T02:31:40.418Z,100249.59
2022-12-23T02:34:17.727Z,100257.59
2022-12-23T02:36:55.351Z,100254.22
2022-12-23T02:39:34.568Z,100267.00
2022-12-23T02:42:08.889Z,100260.09
2022-12-23T02:44:45.342Z,100270.69
2022-12-23T02:47:21.048Z,100277.72
2022-12-23T02:49:55.490Z,100279.63
2022-12-23T02:52:28.360Z,100277.50
2022-12-23T02:55:01.769Z,100279.41
2022-12-23T02:57:35.590Z,100284.88
2022-12-23T03:00:06.205Z,100288.44
2022-12-23T03:02:39.639Z,100294.31
2022-12-23T03:05:23.515Z,100302.91
2022-12-23T03:07:53.230Z,100314.22
2022-12-23T03:10:32.225Z,100311.81
2022-12-23T03:13:08.938Z,100316.34
2022-12-23T03:15:42.644Z,100314.44
2022-12-23T03:18:23.959Z,100320.63
2022-12-23T03:20:55.142Z,100325.88
2022-12-23T03:23:27.959Z,100322.53
2022-12-23T03:25:59.252Z,100311.94
2022-12-23T03:28:34.978Z,100310.13
2022-12-23T03:31:05.015Z,100307.44
2022-12-23T03:33:38.329Z,100311.72
2022-12-23T03:36:11.817Z,100314.66
2022-12-23T03:38:42.533Z,100303.63
2022-12-23T03:41:17.491Z,100305.72
2022-12-23T03:43:51.859Z,100298.69
2022-12-23T03:46:24.821Z,100300.28
2022-12-23T03:48:56.657Z,100299.53
2022-12-23T03:51:32.730Z,100303.00
2022-12-23T03:54:04.855Z,100304.13
2022-12-23T03:56:37.215Z,100297.66
2022-12-23T03:59:14.027Z,100310.13
2022-12-23T04:02:03.008Z,100299.44
2022-12-23T04:04:44.672Z,100308.13
2022-12-23T04:07:19.081Z,100294.91
2022-12-23T04:09:48.344Z,100307.28
2022-12-23T04:12:16.689Z,100326.59
2022-12-23T04:14:48.595Z,100332.66
2022-12-23T04:17:17.431Z,100329.97
2022-12-23T04:19:47.949Z,100328.28
2022-12-23T04:22:17.533Z,100337.63
2022-12-23T04:24:45.578Z,100336.56
2022-12-23T04:27:15.235Z,100346.41
2022-12-23T04:29:43.302Z,100350.94
2022-12-23T04:32:11.810Z,100351.00
2022-12-23T04:34:39.900Z,100355.22
2022-12-23T04:37:09.417Z,100357.00
2022-12-23T04:39:37.492Z,100361.44
2022-12-23T04:42:05.678Z,100361.59
2022-12-23T04:44:33.793Z,100362.47
2022-12-23T04:47:01.991Z,100357.34
2022-12-23T04:49:30.244Z,100353.03
2022-12-23T04:51:58.403Z,100360.03
2022-12-23T04:54:27.966Z,100349.03
2022-12-23T04:56:56.140Z,100350.50
2022-12-23T04:59:24.274Z,100355.31
2022-12-23T05:01:55.012Z,100355.31
2022-12-23T05:04:23.181Z,100352.78
2022-12-23T05:06:51.360Z,100351.00
2022-12-23T05:09:19.695Z,100346.69
2022-12-23T05:11:49.146Z,100340.63
2022-12-23T05:14:17.283Z,100337.88
2022-12-23T05:16:45.488Z,100337.13
2022-12-23T05:19:13.653Z,100339.75
2022-12-23T05:21:41.691Z,100341.44
2022-12-23T05:24:10.118Z,100358.09
2022-12-23T05:26:38.625Z,100364.09
2022-12-23T05:29:08.119Z,100371.22
2022-12-23T05:31:36.312Z,100373.84
2022-12-23T05:34:06.833Z,100371.53
2022-12-23T05:36:35.510Z,100375.94
2022-12-23T05:39:03.772Z,100385.47
2022-12-23T05:41:31.789Z,100377.69
2022-12-23T05:43:59.988Z,100394.91
2022-12-23T05:46:31.842Z,100400.16
2022-12-23T05:49:00.040Z,100400.25
2022-12-23T05:51:28.101Z,100398.56
2022-12-23T05:53:56.167Z,100412.66
2022-12-23T05:56:24.287Z,100403.09
2022-12-23T05:58:54.924Z,100395.22
2022-12-23T06:01:23.044Z,100391.03
2022-12-23T06:03:52.527Z,100397.03
2022-12-23T06:06:20.654Z,100400.47
2022-12-23T06:08:51.007Z,100393.53
2022-12-23T06:11:22.742Z,100401.59
2022-12-23T06:13:52.647Z,100399.81
2022-12-23T06:16:20.813Z,100403.69
2022-12-23T06:18:48.994Z,100390.47
2022-12-23T06:21:18.411Z,100385.63
2022-12-23T06:23:46.475Z,100392.47
2022-12-23T06:26:14.606Z,100391.81
2022-12-23T06:28:42.687Z,100392.63
2022-12-23T06:31:10.985Z,100389.28
2022-12-23T06:33:39.102Z,100386.66
2022-12-23T06:36:08.879Z,100387.50
2022-12-23T06:38:38.352Z,100378.81
2022-12-23T06:41:06.739Z,100372.44
2022-12-23T06:43:34.831Z,100378.69
2022-12-23T06:46:03.087Z,100377.88
2022-12-23T06:48:31.202Z,100394.53
2022-12-23T06:50:59.356Z,100395.56
2022-12-23T06:53:27.588Z,100397.16
2022-12-23T06:56:02.063Z,100395.25
2022-12-23T06:58:30.259Z,100396.03
2022-12-23T07:00:58.522Z,100409.31
2022-12-23T07:03:26.707Z,100417.19
2022-12-23T07:05:55.261Z,100420.94
2022-12-23T07:08:23.729Z,100422.81
2022-12-23T07:10:51.969Z,100428.25
2022-12-23T07:13:21.464Z,100441.34
2022-12-23T07:15:49.580Z,100439.66
2022-12-23T07:18:17.615Z,100444.16
2022-12-23T07:20:45.752Z,100452.00
2022-12-23T07:23:16.113Z,100455.56
2022-12-23T07:25:44.354Z,100461.00
2022-12-23T07:28:12.413Z,100459.09
2022-12-23T07:30:41.892Z,100448.72
2022-12-23T07:33:10.221Z,100450.50
2022-12-23T07:35:38.301Z,100454.78
2022-12-23T07:38:06.579Z,100457.41
2022-12-23T07:40:34.708Z,100454.78
2022-12-23T07:43:02.990Z,100459.19
2022-12-23T07:45:31.502Z,100456.78
2022-12-23T07:48:03.020Z,100447.13
2022-12-23T07:50:31.282Z,100449.75
2022-12-23T07:53:00.478Z,100435.06
2022-12-23T07:55:31.376Z,100443.78
2022-12-23T07:57:59.581Z,100441.06
2022-12-23T08:00:27.741Z,100431.59
2022-12-23T08:02:55.927Z,100428.22
2022-12-23T08:05:25.529Z,100431.59
2022-12-23T08:07:53.889Z,100425.50
2022-12-23T08:10:22.636Z,100433.28
2022-12-23T08:12:50.677Z,100446.47
2022-12-23T08:15:18.780Z,100442.91
2022-12-23T08:17:46.984Z,100431.50
2022-12-23T08:20:15.108Z,100434.03
2022-12-23T08:22:44.604Z,100437.47
2022-12-23T08:25:13.050Z,100435.91
2022-12-23T08:27:41.160Z,100434.97
2022-12-23T08:30:10.689Z,100436.66
2022-12-23T08:32:38.797Z,100434.97
2022-12-23T08:35:07.820Z,100433.09
2022-12-23T08:37:35.969Z,100426.72
2022-12-23T08:40:06.172Z,100439.63
2022-12-23T08:42:34.277Z,100429.81
2022-12-23T08:45:02.408Z,100409.63
2022-12-23T08:47:30.408Z,100414.84
2022-12-23T08:49:58.517Z,100409.63
2022-12-23T08:52:26.621Z,100405.97
2022-12-23T08:54:54.782Z,100405.88
2022-12-23T08:57:24.229Z,100387.41
2022-12-23T08:59:52.924Z,100394.72
2022-12-23T09:02:21.046Z,100392.75
2022-12-23T09:04:49.295Z,100399.97
2022-12-23T09:07:17.473Z,100389.13
2022-12-23T09:09:45.542Z,100389.47
2022-12-23T09:12:13.645Z,100386.66
2022-12-23T09:14:47.639Z,100379.38
2022-12-23T09:17:15.734Z,100378.44
2022-12-23T09:19:48.637Z,100388.06
2022-12-23T09:22:20.430Z,100389.75
2022-12-23T09:24:48.550Z,100385.19
2022-12-23T09:27:19.565Z,100383.28
2022-12-23T09:29:49.069Z,100378.91
2022-12-23T09:32:17.285Z,100360.16
2022-12-23T09:34:45.410Z,100376.19
2022-12-23T09:37:16.691Z,100364.75
2022-12-23T09:39:44.739Z,100376.91
2022-12-23T09:42:29.821Z,100368.78
2022-12-23T09:45:13.075Z,100380.28
2022-12-23T09:47:42.734Z,100374.38
2022-12-23T09:50:21.518Z,100367.84
2022-12-23T09:52:58.634Z,100357.94
2022-12-23T09:55:34.526Z,100358.97
2022-12-23T09:58:07.722Z,100354.28
2022-12-23T10:00:43.915Z,100352.38
2022-12-23T10:03:20.907Z,100345.38
2022-12-23T10:06:00.671Z,100344.31
2022-12-23T10:08:34.424Z,100344.31
2022-12-23T10:11:07.932Z,100341.78
2022-12-23T10:13:40.617Z,100336.38
2022-12-23T10:16:13.685Z,100327.66
2022-12-23T10:18:49.946Z,100316.88
2022-12-23T10:21:26.158Z,100304.94
2022-12-23T10:23:55.720Z,100294.50
2022-12-23T10:26:26.767Z,100285.00
2022-12-23T10:29:00.401Z,100289.09
2022-12-23T10:31:42.845Z,100284.69
2022-12-23T10:34:20.567Z,100278.50
2022-12-23T10:36:59.327Z,100285.50
2022-12-23T10:39:36.710Z,100275.56
2022-12-23T10:42:14.990Z,100272.00
2022-12-23T10:45:02.297Z,100268.97
2022-12-23T10:47:46.341Z,100268.97
2022-12-23T10:50:35.794Z,100265.06
2022-12-23T10:53:09.920Z,100259.63
2022-12-23T10:55:39.981Z,100260.16
2022-12-23T10:58:10.366Z,100255.03
2022-12-23T11:00:42.501Z,100248.94
2022-12-23T11:03:19.907Z,100245.28
2022-12-23T11:05:51.366Z,100243.28
2022-12-23T11:08:21.726Z,100241.81
2022-12-23T11:10:50.288Z,100235.53
2022-12-23T11:13:26.560Z,100230.91
2022-12-23T11:16:13.123Z,100245.38
2022-12-23T11:18:54.234Z,100240.16
2022-12-23T11:21:22.398Z,100235.31
2022-12-23T11:24:09.495Z,100230.81
2022-12-23T11:26:37.798Z,100225.25
2022-12-23T11:29:08.711Z,100216.22
2022-12-23T11:31:37.543Z,100211.19
2022-12-23T11:34:15.038Z,100216.53
2022-12-23T11:36:43.635Z,100220.00
2022-12-23T11:39:23.112Z,100212.88
2022-12-23T11:41:55.205Z,100211.94
2022-12-23T11:44:28.031Z,100208.34
2022-12-23T11:46:56.202Z,100214.03
2022-12-23T11:49:28.074Z,100214.97
2022-12-23T11:52:11.241Z,100201.13
2022-12-23T11:54:40.321Z,100183.81
2022-12-23T11:57:18.471Z,100176.69
2022-12-23T11:59:49.989Z,100178.66
2022-12-23T12:02:23.463Z,100175.41
2022-12-23T12:04:58.723Z,100165.13
2022-12-23T12:07:27.575Z,100152.34
2022-12-23T12:09:59.899Z,100138.59
2022-12-23T12:12:29.997Z,100130.84
2022-12-23T12:15:00.369Z,100131.25
2022-12-23T12:17:36.026Z,100124.53
2022-12-23T12:20:13.289Z,100108.69
2022-12-23T12:22:46.230Z,100111.31
2022-12-23T12:25:21.009Z,100095.56
2022-12-23T12:27:55.335Z,100079.25
2022-12-23T12:30:23.757Z,100084.47
2022-12-23T12:32:57.713Z,100082.69
2022-12-23T12:35:37.769Z,100075.47
2022-12-23T12:38:20.523Z,100063.91
2022-12-23T12:40:53.558Z,100060.78
2022-12-23T12:43:28.882Z,100068.13
2022-12-23T12:46:10.321Z,100062.88
2022-12-23T12:48:46.440Z,100058.16
2022-12-23T12:51:22.392Z,100048.38
2022-12-23T12:54:05.071Z,100053.72
2022-12-23T12:56:39.429Z,100046.91
2022-12-23T12:59:07.562Z,100033.09
2022-12-23T13:01:49.348Z,100033.31
2022-12-23T13:04:45.308Z,100018.63
2022-12-23T13:07:28.104Z,100010.44
2022-12-23T13:10:04.782Z,100003.50
2022-12-23T13:12:47.078Z,99991.34
2022-12-23T13:15:24.105Z,99985.38
2022-12-23T13:18:09.584Z,99979.84
2022-12-23T13:20:44.442Z,99972.50
2022-12-23T13:23:43.081Z,99978.16
2022-12-23T13:26:19.820Z,99969.34
2022-12-23T13:28:57.190Z,99956.88
2022-12-23T13:31:40.060Z,99950.06
2022-12-23T13:34:25.330Z,99941.75
2022-12-23T13:36:58.170Z,99939.69
2022-12-23T13:39:44.018Z,99933.88
2022-12-23T13:42:19.374Z,99920.75
2022-12-23T13:44:47.693Z,99913.75
2022-12-23T13:47:23.175Z,99912.06
2022-12-23T13:50:01.114Z,99915.19
2022-12-23T13:52:39.413Z,99911.00
2022-12-23T13:55:22.695Z,99903.38
2022-12-23T13:57:59.828Z,99898.84
2022-12-23T14:00:32.612Z,99897.91
2022-12-23T14:03:18.031Z,99902.22
2022-12-23T14:05:47.281Z,99898.84
2022-12-23T14:08:27.043Z,99898.84
2022-12-23T14:10:59.998Z,99906.00
2022-12-23T14:13:31.779Z,99908.00
2022-12-23T14:16:22.407Z,99921.63
2022-12-23T14:19:28.798Z,99921.03
2022-12-23T14:22:08.337Z,99922.72
2022-12-23T14:25:00.344Z,99921.78
2022-12-23T14:27:42.738Z,99906.75
2022-12-23T14:30:16.881Z,99902.69
2022-12-23T14:32:49.197Z,99892.06
2022-12-23T14:35:26.912Z,99891.13
2022-12-23T14:38:24.359Z,99875.75
2022-12-23T14:41:12.435Z,99870.13
2022-12-23T14:43:56.109Z,99862.28
2022-12-23T14:47:02.689Z,99857.91
2022-12-23T14:49:48.662Z,99841.44
2022-12-23T14:52:49.221Z,99846.56
2022-12-23T14:55:41.659Z,99841.78
2022-12-23T14:58:24.227Z,99837.13
2022-12-23T15:01:03.670Z,99832.75
2022-12-23T15:03:36.251Z,99839.53
2022-12-23T15:06:07.520Z,99833.81
2022-12-23T15:08:40.412Z,99823.31
2022-12-23T15:11:16.309Z,99824.25
2022-12-23T15:13:44.809Z,99826.25
2022-12-23T15:16:18.747Z,99830.78
2022-12-23T15:18:57.281Z,99822.69
2022-12-23T15:21:30.218Z,99841.16
2022-12-23T15:23:58.358Z,99839.47
2022-12-23T15:26:29.537Z,99841.56
2022-12-23T15:28:59.196Z,99857.97
2022-12-23T15:31:33.257Z,99878.09
2022-12-23T15:34:13.228Z,99875.25
2022-12-23T15:36:46.952Z,99852.03
2022-12-23T15:39:21.899Z,99850.97
2022-12-23T15:41:50.290Z,99845.59
2022-12-23T15:44:22.267Z,99854.50
2022-12-23T15:46:52.526Z,99858.19
2022-12-23T15:49:21.715Z,99867.00
2022-12-23T15:52:12.522Z,99849.00
2022-12-23T15:54:46.622Z,99850.44
2022-12-23T15:57:19.415Z,99867.34
2022-12-23T15:59:47.313Z,99852.31
2022-12-23T16:02:58.968Z,99846.25
2022-12-23T16:05:10.935Z,99838.28
2022-12-23T16:07:41.758Z,99831.47
2022-12-23T16:10:16.096Z,99830.97
2022-12-23T16:12:45.098Z,99830.53
2022-12-23T16:15:28.088Z,99834.91
2022-12-23T16:18:10.753Z,99827.78
2022-12-23T16:20:44.613Z,99831.13
2022-12-23T16:23:13.698Z,99840.16
2022-12-23T16:25:50.242Z,99843.50
2022-12-23T16:28:24.284Z,99849.59
2022-12-23T16:30:54.853Z,99841.94
2022-12-23T16:33:32.552Z,99850.88
2022-12-23T16:39:00.914Z,99838.50
2022-12-23T16:41:28.929Z,99848.75
2022-12-23T16:43:57.048Z,99841.84
2022-12-23T16:46:25.411Z,99845.19
2022-12-23T16:48:55.980Z,99845.41
2022-12-23T16:51:24.732Z,99856.75
2022-12-23T16:53:56.290Z,99854.13
2022-12-23T16:56:34.321Z,99860.41
2022-12-23T16:59:02.669Z,99869.22
2022-12-23T17:01:33.359Z,99881.28
2022-12-23T17:04:01.826Z,99877.81
2022-12-23T17:06:29.969Z,99884.94
2022-12-23T17:08:58.154Z,99884.00
2022-12-23T17:11:36.136Z,99892.59
2022-12-23T17:14:07.961Z,99891.88
2022-12-23T17:16:40.235Z,99891.13
2022-12-23T17:19:08.375Z,99888.63
2022-12-23T17:21:39.016Z,99889.13
2022-12-23T17:24:10.909Z,99884.13
2022-12-23T17:26:40.390Z,99887.47
2022-12-23T17:29:08.602Z,99897.81
2022-12-23T17:31:36.988Z,99888.44
2022-12-23T17:34:11.661Z,99889.47
2022-12-23T17:36:44.388Z,99891.47
2022-12-23T17:39:16.380Z,99893.88
2022-12-23T17:41:45.947Z,99888.31
2022-12-23T17:44:15.961Z,99891.53
2022-12-23T17:46:44.354Z,99887.84
2022-12-23T17:49:14.860Z,99879.56
2022-12-23T17:51:43.947Z,99889.09
2022-12-23T17:54:21.569Z,99887.19
2022-12-23T17:56:51.287Z,99898.41
2022-12-23T17:59:19.514Z,99884.72
2022-12-23T18:01:47.902Z,99893.44
2022-12-23T18:04:16.087Z,99890.59
2022-12-23T18:06:44.226Z,99901.06
2022-12-23T18:09:12.347Z,99908.38
2022-12-23T18:11:43.435Z,99900.53
2022-12-23T18:14:17.530Z,99909.72
2022-12-23T18:16:46.493Z,99906.03
2022-12-23T18:19:18.107Z,99911.03
2022-12-23T18:21:46.712Z,99921.94
2022-12-23T18:24:14.852Z,99920.25
2022-12-23T18:26:43.038Z,99926.13
2022-12-23T18:29:11.293Z,99922.31
2022-12-23T18:31:51.383Z,99923.97
2022-12-23T18:34:20.729Z,99919.56
2022-12-23T18:36:51.686Z,99930.56
2022-12-23T18:39:20.178Z,99927.69
2022-12-23T18:41:48.324Z,99929.38
2022-12-23T18:44:18.520Z,99924.97
2022-12-23T18:46:48.355Z,99939.63
2022-12-23T18:49:16.949Z,99942.16
2022-12-23T18:51:45.034Z,99930.09
2022-12-23T18:54:15.552Z,99956.09
2022-12-23T18:56:44.320Z,99946.09
2022-12-23T18:59:18.591Z,99955.78
2022-12-23T19:01:50.072Z,99959.84
2022-12-23T19:04:18.775Z,99954.81
2022-12-23T19:06:47.264Z,99959.22
2022-12-23T19:09:17.965Z,99965.31
2022-12-23T19:11:48.330Z,99961.59
2022-12-23T19:14:16.716Z,99963.28
2022-12-23T19:16:50.870Z,99961.59
2022-12-23T19:19:21.069Z,99958.91
2022-12-23T19:21:49.170Z,99959.59
2022-12-23T19:24:17.307Z,99967.34
2022-12-23T19:26:45.627Z,99966.66
2022-12-23T19:29:13.767Z,99960.66
2022-12-23T19:31:42.120Z,99973.53
2022-12-23T19:34:15.047Z,99975.22
2022-12-23T19:36:45.304Z,99973.53
2022-12-23T19:39:16.795Z,99979.66
2022-12-23T19:41:45.623Z,99983.97
2022-12-23T19:44:13.837Z,99991.72
2022-12-23T19:46:42.230Z,100000.19
2022-12-23T19:49:15.632Z,100001.03
2022-12-23T19:51:49.121Z,100002.09
2022-12-23T19:54:17.608Z,100004.84
2022-12-23T19:56:46.370Z,100009.34
2022-12-23T19:59:14.490Z,99996.97
2022-12-23T20:01:42.620Z,100005.66
2022-12-23T20:04:11.286Z,100005.78
2022-12-23T20:06:43.427Z,100017.97
2022-12-23T20:09:14.219Z,100022.75
2022-12-23T20:11:44.523Z,100027.28
2022-12-23T20:14:13.084Z,100030.25
2022-12-23T20:16:41.960Z,100045.28
2022-12-23T20:19:10.134Z,100041.81
2022-12-23T20:21:38.473Z,100043.59
2022-12-23T20:24:07.735Z,100046.97
2022-12-23T20:26:37.307Z,100051.03
2022-12-23T20:29:05.679Z,100062.25
2022-12-23T20:31:35.545Z,100058.69
2022-12-23T20:34:04.081Z,100060.56
2022-12-23T20:36:34.114Z,100059.88
2022-12-23T20:39:03.527Z,100070.25
2022-12-23T20:41:32.877Z,100069.19
2022-12-23T20:44:32.996Z,100065.75
2022-12-23T20:46:50.706Z,100080.13
2022-12-23T20:49:18.842Z,100079.41
2022-12-23T20:51:46.891Z,100085.50
2022-12-23T20:54:15.060Z,100090.88
2022-12-23T20:56:43.115Z,100096.94
2022-12-23T20:59:12.694Z,100114.06
2022-12-23T21:01:41.691Z,100115.31
2022-12-23T21:04:12.835Z,100112.22
2022-12-23T21:06:41.147Z,100111.34
2022-12-23T21:09:12.504Z,100119.56
2022-12-23T21:11:43.018Z,100126.41
2022-12-23T21:14:13.798Z,100132.59
2022-12-23T21:16:42.770Z,100126.09
2022-12-23T21:19:16.565Z,100131.34
2022-12-23T21:21:44.681Z,100134.91
2022-12-23T21:24:13.443Z,100137.78
2022-12-23T21:26:42.015Z,100143.63
2022-12-23T21:29:13.109Z,100144.69
2022-12-23T21:31:42.251Z,100147.69
2022-12-23T21:34:14.474Z,100162.84
2022-12-23T21:36:43.791Z,100163.78
2022-12-23T21:39:15.398Z,100177.03
2022-12-23T21:41:43.891Z,100173.13
2022-12-23T21:44:14.904Z,100182.91
2022-12-23T21:46:43.211Z,100183.22
2022-12-23T21:49:12.008Z,100193.09
2022-12-23T21:51:41.447Z,100195.22
2022-12-23T21:54:11.309Z,100207.28
2022-12-23T21:56:39.865Z,100197.72
2022-12-23T21:59:12.233Z,100198.03
2022-12-23T22:01:42.968Z,100205.53
2022-12-23T22:04:11.372Z,100203.63
2022-12-23T22:06:43.710Z,100212.13
2022-12-23T22:09:16.292Z,100206.56
2022-12-23T22:11:44.683Z,100206.34
2022-12-23T22:14:14.948Z,100207.63
2022-12-23T22:16:44.688Z,100209.38
2022-12-23T22:19:13.605Z,100205.19
2022-12-23T22:21:42.809Z,100218.84
2022-12-23T22:24:11.432Z,100222.50
2022-12-23T22:26:40.652Z,100228.16
2022-12-23T22:29:08.834Z,100233.13
2022-12-23T22:31:40.589Z,100234.78
2022-12-23T22:34:13.841Z,100237.19
2022-12-23T22:36:42.018Z,100248.34
2022-12-23T22:39:17.636Z,100244.78
2022-12-23T22:41:48.156Z,100258.00
2022-12-23T22:44:16.371Z,100259.13
2022-12-23T22:46:44.674Z,100263.44
2022-12-23T22:49:15.329Z,100266.91
2022-12-23T22:51:43.852Z,100275.41
2022-12-23T22:54:11.964Z,100285.19
2022-12-23T22:56:42.833Z,100277.09
2022-12-23T22:59:22.226Z,100293.88
2022-12-23T23:01:54.144Z,100301.63
2022-12-23T23:04:24.080Z,100293.44
2022-12-23T23:06:52.178Z,100302.59
2022-12-23T23:09:21.695Z,100301.22
2022-12-23T23:11:50.180Z,100317.59
2022-12-23T23:14:19.280Z,100313.63
2022-12-23T23:16:47.406Z,100316.13
2022-12-23T23:19:16.506Z,100333.56
2022-12-23T23:21:46.008Z,100331.75
2022-12-23T23:24:14.303Z,100333.03
2022-12-23T23:26:42.552Z,100340.13
2022-12-23T23:29:10.566Z,100342.47
2022-12-23T23:31:42.495Z,100344.06
2022-12-23T23:34:11.707Z,100344.16
2022-12-23T23:36:40.459Z,100339.84
2022-12-23T23:39:11.975Z,100352.09
2022-12-23T23:41:41.061Z,100362.09
2022-12-23T23:44:09.553Z,100361.88
2022-12-23T23:46:37.767Z,100367.78
2022-12-23T23:49:05.875Z,100360.94
2022-12-23T23:51:34.071Z,100367.03
2022-12-23T23:54:02.460Z,100369.53
2022-12-23T23:56:37.839Z,100382.66
2022-12-23T23:59:07.211Z,100384.56
